createdAt,value
2019-03-09T00:00:46.195Z,0.70
2019-03-09T00:03:17.924Z,1.20
2019-03-09T00:05:49.662Z,0.50
2019-03-09T00:08:21.308Z,1.03
2019-03-09T00:10:53.249Z,0.53
2019-03-09T00:13:24.953Z,0.80
2019-03-09T00:15:56.619Z,0.90
2019-03-09T00:18:28.352Z,0.97
2019-03-09T00:21:00.110Z,0.80
2019-03-09T00:23:49.709Z,0.87
2019-03-09T00:26:29.862Z,0.70
2019-03-09T00:29:06.533Z,0.63
2019-03-09T00:31:49.270Z,0.90
2019-03-09T00:34:21.003Z,0.77
2019-03-09T00:36:52.768Z,0.60
2019-03-09T00:39:24.418Z,0.60
2019-03-09T00:41:56.166Z,0.50
2019-03-09T00:44:27.842Z,0.60
2019-03-09T00:46:59.582Z,0.60
2019-03-09T00:49:31.242Z,0.60
2019-03-09T00:52:02.931Z,0.70
2019-03-09T00:54:34.653Z,0.60
2019-03-09T00:57:06.418Z,0.50
2019-03-09T00:59:38.133Z,0.70
2019-03-09T01:02:09.884Z,0.50
2019-03-09T01:04:41.597Z,0.50
2019-03-09T01:07:13.350Z,0.47
2019-03-09T01:09:46.278Z,0.50
2019-03-09T01:12:18.068Z,0.53
2019-03-09T01:14:49.841Z,0.87
2019-03-09T01:17:21.500Z,1.10
2019-03-09T01:19:53.257Z,0.63
2019-03-09T01:22:24.979Z,0.50
2019-03-09T01:24:56.947Z,0.50
2019-03-09T01:27:28.718Z,0.43
2019-03-09T01:30:00.430Z,0.30
2019-03-09T01:32:32.163Z,0.47
2019-03-09T01:35:04.030Z,0.40
2019-03-09T01:37:35.687Z,0.30
2019-03-09T01:40:08.494Z,0.40
2019-03-09T01:42:40.244Z,0.40
2019-03-09T01:45:12.564Z,0.40
2019-03-09T01:47:44.234Z,0.50
2019-03-09T01:50:16.053Z,0.70
2019-03-09T01:52:47.719Z,0.57
2019-03-09T01:55:19.455Z,0.40
2019-03-09T01:57:51.173Z,1.00
2019-03-09T02:00:22.939Z,0.50
2019-03-09T02:02:54.633Z,0.90
2019-03-09T02:05:26.387Z,0.90
2019-03-09T02:07:58.133Z,0.60
2019-03-09T02:10:29.804Z,0.77
2019-03-09T02:13:01.469Z,0.90
2019-03-09T02:15:33.209Z,1.50
2019-03-09T02:18:04.893Z,0.50
2019-03-09T02:20:36.915Z,0.80
2019-03-09T02:23:08.644Z,0.90
2019-03-09T02:25:40.341Z,1.00
2019-03-09T02:28:12.029Z,0.93
2019-03-09T02:30:43.721Z,1.30
2019-03-09T02:33:15.407Z,1.00
2019-03-09T02:35:47.168Z,1.00
2019-03-09T02:38:39.509Z,1.30
2019-03-09T02:41:12.378Z,1.17
2019-03-09T02:43:44.101Z,1.00
2019-03-09T02:46:15.936Z,1.23
2019-03-09T02:48:47.736Z,2.90
2019-03-09T02:51:19.404Z,1.50
2019-03-09T02:53:51.077Z,1.40
2019-03-09T02:56:22.792Z,2.00
2019-03-09T02:58:54.531Z,1.90
2019-03-09T03:01:45.389Z,1.80
2019-03-09T03:04:17.222Z,0.83
2019-03-09T03:06:48.879Z,1.93
2019-03-09T03:09:20.560Z,1.10
2019-03-09T03:11:53.565Z,1.23
2019-03-09T03:14:25.592Z,2.00
2019-03-09T03:16:57.263Z,1.73
2019-03-09T03:19:30.034Z,2.00
2019-03-09T03:22:01.727Z,0.93
2019-03-09T03:24:33.451Z,3.20
2019-03-09T03:27:05.122Z,2.17
2019-03-09T03:29:36.856Z,0.80
2019-03-09T03:32:08.539Z,1.07
2019-03-09T03:34:40.277Z,1.90
2019-03-09T03:37:11.968Z,1.70
2019-03-09T03:39:43.693Z,2.53
2019-03-09T03:42:15.562Z,1.00
2019-03-09T03:44:48.358Z,1.30
2019-03-09T03:47:20.062Z,0.67
2019-03-09T03:49:51.748Z,2.07
2019-03-09T03:52:25.173Z,1.17
2019-03-09T03:54:56.922Z,2.10
2019-03-09T03:57:28.664Z,1.43
2019-03-09T04:00:01.920Z,1.23
2019-03-09T04:02:34.688Z,0.93
2019-03-09T04:05:06.617Z,2.50
2019-03-09T04:07:38.398Z,1.37
2019-03-09T04:10:11.275Z,3.07
2019-03-09T04:12:43.037Z,2.33
2019-03-09T04:15:14.761Z,2.33
2019-03-09T04:17:46.445Z,3.00
2019-03-09T04:20:18.118Z,4.13
2019-03-09T04:22:49.948Z,1.10
2019-03-09T04:25:21.635Z,2.97
2019-03-09T04:27:53.715Z,1.40
2019-03-09T04:30:25.395Z,1.40
2019-03-09T04:32:57.135Z,1.27
2019-03-09T04:35:28.816Z,2.10
2019-03-09T04:38:00.580Z,1.47
2019-03-09T04:40:32.221Z,1.20
2019-03-09T04:43:03.916Z,1.70
2019-03-09T04:45:35.570Z,1.10
2019-03-09T04:48:07.248Z,1.33
2019-03-09T04:50:39.206Z,1.53
2019-03-09T04:53:10.959Z,2.00
2019-03-09T04:55:42.630Z,1.13
2019-03-09T04:58:15.622Z,2.20
2019-03-09T05:00:47.333Z,2.47
2019-03-09T05:03:18.999Z,2.47
2019-03-09T05:05:50.759Z,1.30
2019-03-09T05:08:40.646Z,2.77
2019-03-09T05:11:15.884Z,1.17
2019-03-09T05:14:09.323Z,3.70
2019-03-09T05:16:40.991Z,3.27
2019-03-09T05:19:12.679Z,1.23
2019-03-09T05:21:44.746Z,2.13
2019-03-09T05:24:16.509Z,2.33
2019-03-09T05:26:48.186Z,4.03
2019-03-09T05:29:19.877Z,1.83
2019-03-09T05:31:51.636Z,1.90
2019-03-09T05:34:23.317Z,1.70
2019-03-09T05:36:54.987Z,4.00
2019-03-09T05:39:26.671Z,2.70
2019-03-09T05:41:58.335Z,3.50
2019-03-09T05:44:30.027Z,2.40
2019-03-09T05:47:01.681Z,3.17
2019-03-09T05:49:33.355Z,3.27
2019-03-09T05:52:30.561Z,3.83
2019-03-09T05:55:08.027Z,3.57
2019-03-09T05:57:39.827Z,2.57
2019-03-09T06:00:13.172Z,2.40
2019-03-09T06:02:44.913Z,2.80
2019-03-09T06:05:39.561Z,3.57
2019-03-09T06:08:11.271Z,3.33
2019-03-09T06:10:43.021Z,2.67
2019-03-09T06:13:15.909Z,4.63
2019-03-09T06:15:47.599Z,2.57
2019-03-09T06:18:19.306Z,3.73
2019-03-09T06:20:50.967Z,3.23
2019-03-09T06:23:22.631Z,3.70
2019-03-09T06:25:54.310Z,4.67
2019-03-09T06:28:26.081Z,3.60
2019-03-09T06:30:57.801Z,3.30
2019-03-09T06:33:33.971Z,3.73
2019-03-09T06:36:35.367Z,3.67
2019-03-09T06:39:21.675Z,3.60
2019-03-09T06:42:38.302Z,2.60
2019-03-09T06:45:12.195Z,3.37
2019-03-09T06:47:44.211Z,2.57
2019-03-09T06:50:17.917Z,2.30
2019-03-09T06:52:49.659Z,2.20
2019-03-09T06:55:21.358Z,3.60
2019-03-09T06:57:53.122Z,3.90
2019-03-09T07:00:39.627Z,3.40
2019-03-09T07:03:11.908Z,3.67
2019-03-09T07:05:43.636Z,1.90
2019-03-09T07:08:15.381Z,2.37
2019-03-09T07:10:47.048Z,4.23
2019-03-09T07:13:18.813Z,2.87
2019-03-09T07:15:50.580Z,3.10
2019-03-09T07:18:24.612Z,3.47
2019-03-09T07:20:56.318Z,2.60
2019-03-09T07:23:27.969Z,2.73
2019-03-09T07:25:59.642Z,2.93
2019-03-09T07:28:31.893Z,3.07
2019-03-09T07:31:03.652Z,2.70
2019-03-09T07:33:35.308Z,2.63
2019-03-09T07:36:07.107Z,3.60
2019-03-09T07:38:38.780Z,2.43
2019-03-09T07:41:10.529Z,3.13
2019-03-09T07:43:42.195Z,2.87
2019-03-09T07:46:13.879Z,2.90
2019-03-09T07:48:45.526Z,3.13
2019-03-09T07:51:17.228Z,3.60
2019-03-09T07:53:48.944Z,4.57
2019-03-09T07:56:20.637Z,2.40
2019-03-09T07:58:52.302Z,3.77
2019-03-09T08:01:24.129Z,2.40
2019-03-09T08:03:55.882Z,3.23
2019-03-09T08:06:27.556Z,4.10
2019-03-09T08:08:59.295Z,3.40
2019-03-09T08:11:31.022Z,4.00
2019-03-09T08:14:02.672Z,4.57
2019-03-09T08:16:35.738Z,4.03
2019-03-09T08:19:07.846Z,3.63
2019-03-09T08:21:39.674Z,5.30
2019-03-09T08:24:11.483Z,3.30
2019-03-09T08:26:43.239Z,4.23
2019-03-09T08:29:15.013Z,3.90
2019-03-09T08:31:46.732Z,2.33
2019-03-09T08:34:18.544Z,3.87
2019-03-09T08:36:50.392Z,3.70
2019-03-09T08:39:22.150Z,4.20
2019-03-09T08:41:53.979Z,3.10
2019-03-09T08:44:25.667Z,5.07
2019-03-09T08:46:57.325Z,6.03
2019-03-09T08:49:29.485Z,3.90
2019-03-09T08:52:01.226Z,5.60
2019-03-09T08:54:33.013Z,3.50
2019-03-09T08:57:04.851Z,5.27
2019-03-09T08:59:36.549Z,4.93
2019-03-09T09:02:08.828Z,4.90
2019-03-09T09:04:40.608Z,5.07
2019-03-09T09:07:12.295Z,6.73
2019-03-09T09:09:43.971Z,5.17
2019-03-09T09:12:15.725Z,4.57
2019-03-09T09:14:47.415Z,4.50
2019-03-09T09:17:19.093Z,4.27
2019-03-09T09:19:51.036Z,4.77
2019-03-09T09:22:22.787Z,4.90
2019-03-09T09:24:54.484Z,4.97
2019-03-09T09:27:26.263Z,5.40
2019-03-09T09:29:58.085Z,4.37
2019-03-09T09:32:29.846Z,6.73
2019-03-09T09:35:01.527Z,4.63
2019-03-09T09:37:33.725Z,5.17
2019-03-09T09:40:07.475Z,7.40
2019-03-09T09:42:39.165Z,4.77
2019-03-09T09:45:13.319Z,4.73
2019-03-09T09:47:45.179Z,5.53
2019-03-09T09:50:16.992Z,6.00
2019-03-09T09:52:52.608Z,5.57
2019-03-09T09:55:24.419Z,7.27
2019-03-09T09:57:56.286Z,6.83
2019-03-09T10:00:28.031Z,6.83
2019-03-09T10:02:59.785Z,5.47
2019-03-09T10:05:31.517Z,5.93
2019-03-09T10:08:03.198Z,4.33
2019-03-09T10:10:34.960Z,6.67
2019-03-09T10:13:06.714Z,4.77
2019-03-09T10:15:39.658Z,5.63
2019-03-09T10:18:12.731Z,5.27
2019-03-09T10:20:45.850Z,5.97
2019-03-09T10:23:17.545Z,5.13
2019-03-09T10:25:49.324Z,6.43
2019-03-09T10:28:21.081Z,5.37
2019-03-09T10:30:52.834Z,5.87
2019-03-09T10:33:25.402Z,6.60
2019-03-09T10:35:59.472Z,5.53
2019-03-09T10:38:31.486Z,7.00
2019-03-09T10:41:03.264Z,6.47
2019-03-09T10:43:35.108Z,6.30
2019-03-09T10:46:06.761Z,7.30
2019-03-09T10:48:38.540Z,6.73
2019-03-09T10:51:11.814Z,6.93
2019-03-09T10:53:43.573Z,6.77
2019-03-09T10:56:15.244Z,6.87
2019-03-09T10:58:47.002Z,7.40
2019-03-09T11:01:18.753Z,7.50
2019-03-09T11:03:50.451Z,9.17
2019-03-09T11:06:22.141Z,7.93
2019-03-09T11:08:53.847Z,7.53
2019-03-09T11:11:25.672Z,8.10
2019-03-09T11:13:57.432Z,7.23
2019-03-09T11:16:29.420Z,6.70
2019-03-09T11:19:01.224Z,8.97
2019-03-09T11:21:32.949Z,5.87
2019-03-09T11:24:04.662Z,8.70
2019-03-09T11:26:36.428Z,8.50
2019-03-09T11:29:08.219Z,8.93
2019-03-09T11:31:40.114Z,5.73
2019-03-09T11:34:13.037Z,5.10
2019-03-09T11:36:44.804Z,6.93
2019-03-09T11:39:16.573Z,6.57
2019-03-09T11:41:48.443Z,4.77
2019-03-09T11:44:20.155Z,5.97
2019-03-09T11:46:51.966Z,6.20
2019-03-09T11:49:25.980Z,5.77
2019-03-09T11:51:57.700Z,4.80
2019-03-09T11:54:29.528Z,5.55
2019-03-09T11:57:01.322Z,6.67
2019-03-09T11:59:34.099Z,4.73
2019-03-09T12:02:05.812Z,5.72
2019-03-09T12:04:46.285Z,6.37
2019-03-09T12:07:11.799Z,5.30
2019-03-09T12:09:43.895Z,6.27
2019-03-09T12:12:15.640Z,5.65
2019-03-09T12:14:47.308Z,3.50
2019-03-09T12:17:19.088Z,4.73
2019-03-09T12:19:52.485Z,4.37
2019-03-09T12:22:24.528Z,5.30
2019-03-09T12:24:56.244Z,5.20
2019-03-09T12:27:28.066Z,5.17
2019-03-09T12:29:59.811Z,5.17
2019-03-09T12:32:32.670Z,3.62
2019-03-09T12:35:04.475Z,4.93
2019-03-09T12:37:36.235Z,4.15
2019-03-09T12:40:10.556Z,3.50
2019-03-09T12:42:42.314Z,4.60
2019-03-09T12:45:14.386Z,4.43
2019-03-09T12:47:46.298Z,5.83
2019-03-09T12:50:18.292Z,4.08
2019-03-09T12:52:50.002Z,5.40
2019-03-09T12:55:21.673Z,4.30
2019-03-09T12:57:53.451Z,3.70
2019-03-09T13:00:26.331Z,3.40
2019-03-09T13:02:58.004Z,3.43
2019-03-09T13:05:29.790Z,3.47
2019-03-09T13:08:01.499Z,5.05
2019-03-09T13:10:33.613Z,4.03
2019-03-09T13:13:05.569Z,4.13
2019-03-09T13:15:37.448Z,4.30
2019-03-09T13:18:09.159Z,6.23
2019-03-09T13:20:40.831Z,5.80
2019-03-09T13:23:12.564Z,4.53
2019-03-09T13:25:44.433Z,4.97
2019-03-09T13:28:16.260Z,4.13
2019-03-09T13:30:47.980Z,4.63
2019-03-09T13:33:19.817Z,5.40
2019-03-09T13:35:51.502Z,4.12
2019-03-09T13:38:23.222Z,5.10
2019-03-09T13:40:55.018Z,4.78
2019-03-09T13:43:26.700Z,5.47
2019-03-09T13:45:58.414Z,4.43
2019-03-09T13:48:30.125Z,5.08
2019-03-09T13:51:01.928Z,5.27
2019-03-09T13:53:33.646Z,5.30
2019-03-09T13:56:05.410Z,5.40
2019-03-09T13:58:37.282Z,7.90
2019-03-09T14:01:09.023Z,4.22
2019-03-09T14:03:40.718Z,4.50
2019-03-09T14:06:12.445Z,5.03
2019-03-09T14:08:44.135Z,5.85
2019-03-09T14:11:15.910Z,3.90
2019-03-09T14:13:47.699Z,4.40
2019-03-09T14:16:19.340Z,6.95
2019-03-09T14:18:51.073Z,4.90
2019-03-09T14:21:22.826Z,6.80
2019-03-09T14:23:54.515Z,8.63
2019-03-09T14:26:26.531Z,6.60
2019-03-09T14:28:58.231Z,7.70
2019-03-09T14:31:29.921Z,6.50
2019-03-09T14:34:01.609Z,5.37
2019-03-09T14:36:33.306Z,4.97
2019-03-09T14:39:05.752Z,6.72
2019-03-09T14:41:37.501Z,5.40
2019-03-09T14:44:09.260Z,5.23
2019-03-09T14:46:40.985Z,6.13
2019-03-09T14:49:12.724Z,5.27
2019-03-09T14:51:44.504Z,6.23
2019-03-09T14:54:16.187Z,6.70
2019-03-09T14:56:47.980Z,7.40
2019-03-09T14:59:19.805Z,6.03
2019-03-09T15:01:51.569Z,7.08
2019-03-09T15:04:23.397Z,6.43
2019-03-09T15:06:55.181Z,5.30
2019-03-09T15:09:26.963Z,6.28
2019-03-09T15:11:58.724Z,4.47
2019-03-09T15:14:30.435Z,6.33
2019-03-09T15:17:02.100Z,4.75
2019-03-09T15:19:33.796Z,6.90
2019-03-09T15:22:05.508Z,6.42
2019-03-09T15:24:37.283Z,4.63
2019-03-09T15:27:09.055Z,6.40
2019-03-09T15:29:40.755Z,6.63
2019-03-09T15:32:12.433Z,5.20
2019-03-09T15:34:44.233Z,7.67
2019-03-09T15:37:16.385Z,4.80
2019-03-09T15:39:48.137Z,6.70
2019-03-09T15:42:19.852Z,5.53
2019-03-09T15:44:51.564Z,7.43
2019-03-09T15:47:23.389Z,6.40
2019-03-09T15:49:55.088Z,5.50
2019-03-09T15:52:26.765Z,7.47
2019-03-09T15:54:58.557Z,5.73
2019-03-09T15:57:30.323Z,6.73
2019-03-09T16:00:02.198Z,6.05
2019-03-09T16:02:33.976Z,6.40
2019-03-09T16:05:05.871Z,5.37
2019-03-09T16:07:37.555Z,5.85
2019-03-09T16:10:10.648Z,6.93
2019-03-09T16:12:42.404Z,8.00
2019-03-09T16:15:14.631Z,6.97
2019-03-09T16:17:47.268Z,5.90
2019-03-09T16:20:18.968Z,7.03
2019-03-09T16:22:50.797Z,5.73
2019-03-09T16:25:22.636Z,6.47
2019-03-09T16:27:54.434Z,4.20
2019-03-09T16:30:26.202Z,6.70
2019-03-09T16:32:57.860Z,5.60
2019-03-09T16:35:29.562Z,5.13
2019-03-09T16:38:01.273Z,6.30
2019-03-09T16:40:40.118Z,6.20
2019-03-09T16:43:06.491Z,5.47
2019-03-09T16:45:38.242Z,6.20
2019-03-09T16:48:09.906Z,6.03
2019-03-09T16:50:41.671Z,5.77
2019-03-09T16:53:13.424Z,9.07
2019-03-09T16:55:45.197Z,4.53
2019-03-09T16:58:16.940Z,5.43
2019-03-09T17:00:48.632Z,6.53
2019-03-09T17:03:20.406Z,5.40
2019-03-09T17:05:52.195Z,5.27
2019-03-09T17:08:23.892Z,6.00
2019-03-09T17:10:55.609Z,5.30
2019-03-09T17:13:27.300Z,4.87
2019-03-09T17:15:58.993Z,5.17
2019-03-09T17:18:30.822Z,6.13
2019-03-09T17:21:02.603Z,6.07
2019-03-09T17:23:34.385Z,5.47
2019-03-09T17:26:06.178Z,6.77
2019-03-09T17:28:37.915Z,4.60
2019-03-09T17:31:09.649Z,6.30
2019-03-09T17:33:41.340Z,5.47
2019-03-09T17:36:13.031Z,4.33
2019-03-09T17:38:44.702Z,5.57
2019-03-09T17:41:16.389Z,5.63
2019-03-09T17:43:48.120Z,5.13
2019-03-09T17:46:23.639Z,6.97
2019-03-09T17:48:55.410Z,5.37
2019-03-09T17:51:27.127Z,5.10
2019-03-09T17:53:58.801Z,4.60
2019-03-09T17:56:30.492Z,4.80
2019-03-09T17:59:02.168Z,7.27
2019-03-09T18:01:33.974Z,4.90
2019-03-09T18:04:05.630Z,5.67
2019-03-09T18:06:37.384Z,4.53
2019-03-09T18:09:09.058Z,6.63
2019-03-09T18:11:40.756Z,4.57
2019-03-09T18:14:12.512Z,5.07
2019-03-09T18:16:52.497Z,5.97
2019-03-09T18:19:17.607Z,5.20
2019-03-09T18:21:49.264Z,4.60
2019-03-09T18:24:20.962Z,5.70
2019-03-09T18:26:52.722Z,5.23
2019-03-09T18:29:24.493Z,4.87
2019-03-09T18:31:56.250Z,5.87
2019-03-09T18:34:27.926Z,5.90
2019-03-09T18:36:59.714Z,5.77
2019-03-09T18:39:31.422Z,5.10
2019-03-09T18:42:03.110Z,4.23
2019-03-09T18:44:34.839Z,6.27
2019-03-09T18:47:06.527Z,4.10
2019-03-09T18:49:38.265Z,3.50
2019-03-09T18:52:10.020Z,4.57
2019-03-09T18:54:41.797Z,3.50
2019-03-09T18:57:13.553Z,3.97
2019-03-09T18:59:45.359Z,5.27
2019-03-09T19:02:17.068Z,3.97
2019-03-09T19:04:49.048Z,5.00
2019-03-09T19:07:20.756Z,4.30
2019-03-09T19:09:52.494Z,5.10
2019-03-09T19:12:24.331Z,5.30
2019-03-09T19:14:56.021Z,5.30
2019-03-09T19:17:27.822Z,4.30
2019-03-09T19:19:59.641Z,4.87
2019-03-09T19:22:31.350Z,6.33
2019-03-09T19:25:03.106Z,3.30
2019-03-09T19:27:34.881Z,4.57
2019-03-09T19:30:07.584Z,4.53
2019-03-09T19:32:39.282Z,4.03
2019-03-09T19:35:11.003Z,4.33
2019-03-09T19:37:42.825Z,3.60
2019-03-09T19:40:15.327Z,4.30
2019-03-09T19:42:47.064Z,5.60
2019-03-09T19:45:18.906Z,4.70
2019-03-09T19:47:50.601Z,4.03
2019-03-09T19:50:22.373Z,4.10
2019-03-09T19:52:54.065Z,3.20
2019-03-09T19:55:25.857Z,3.30
2019-03-09T19:57:57.552Z,4.70
2019-03-09T20:00:29.344Z,4.30
2019-03-09T20:03:01.095Z,4.10
2019-03-09T20:05:32.769Z,4.40
2019-03-09T20:08:04.577Z,3.43
2019-03-09T20:10:36.308Z,3.80
2019-03-09T20:13:08.462Z,3.50
2019-03-09T20:15:40.173Z,3.57
2019-03-09T20:18:11.927Z,5.83
2019-03-09T20:20:43.594Z,3.27
2019-03-09T20:23:16.215Z,5.17
2019-03-09T20:25:48.039Z,6.30
2019-03-09T20:28:19.837Z,3.47
2019-03-09T20:30:51.509Z,4.90
2019-03-09T20:33:23.278Z,4.70
2019-03-09T20:35:55.329Z,4.07
2019-03-09T20:38:27.029Z,4.50
2019-03-09T20:40:58.717Z,5.70
2019-03-09T20:43:30.411Z,4.80
2019-03-09T20:46:02.121Z,4.93
2019-03-09T20:48:33.961Z,4.17
2019-03-09T20:51:05.630Z,4.07
2019-03-09T20:53:37.401Z,4.47
2019-03-09T20:56:09.148Z,4.97
2019-03-09T20:58:40.818Z,4.63
2019-03-09T21:01:12.499Z,4.47
2019-03-09T21:03:44.262Z,4.60
2019-03-09T21:06:16.012Z,3.57
2019-03-09T21:08:47.749Z,4.60
2019-03-09T21:11:19.462Z,4.83
2019-03-09T21:13:51.248Z,4.63
2019-03-09T21:16:23.036Z,4.63
2019-03-09T21:18:55.055Z,3.87
2019-03-09T21:21:26.733Z,3.90
2019-03-09T21:23:58.408Z,4.27
2019-03-09T21:26:30.102Z,3.30
2019-03-09T21:29:01.871Z,4.00
2019-03-09T21:31:33.560Z,2.90
2019-03-09T21:34:05.560Z,3.77
2019-03-09T21:36:37.221Z,4.37
2019-03-09T21:39:09.379Z,3.43
2019-03-09T21:41:41.070Z,9.53
2019-03-09T21:44:12.834Z,7.90
2019-03-09T21:46:44.519Z,8.97
2019-03-09T21:49:16.198Z,5.53
2019-03-09T21:51:47.955Z,7.17
2019-03-09T21:54:20.251Z,5.07
2019-03-09T21:56:51.978Z,4.83
2019-03-09T21:59:23.736Z,3.93
2019-03-09T22:01:55.404Z,4.27
2019-03-09T22:04:27.176Z,4.67
2019-03-09T22:06:58.859Z,5.70
2019-03-09T22:09:30.572Z,4.93
2019-03-09T22:12:02.361Z,3.63
2019-03-09T22:14:34.092Z,5.77
2019-03-09T22:17:05.884Z,4.23
2019-03-09T22:19:37.598Z,4.17
2019-03-09T22:22:09.283Z,3.10
2019-03-09T22:24:41.030Z,4.00
2019-03-09T22:27:12.774Z,4.17
2019-03-09T22:29:45.727Z,5.03
2019-03-09T22:32:19.538Z,3.60
2019-03-09T22:34:50.826Z,3.77
2019-03-09T22:37:22.590Z,4.50
2019-03-09T22:39:54.294Z,3.80
2019-03-09T22:42:25.994Z,3.30
2019-03-09T22:44:57.748Z,4.70
2019-03-09T22:47:29.495Z,5.40
2019-03-09T22:50:01.164Z,5.03
2019-03-09T22:52:32.846Z,4.23
2019-03-09T22:55:04.587Z,4.10
2019-03-09T22:57:36.325Z,4.70
2019-03-09T23:00:10.829Z,4.77
2019-03-09T23:02:44.825Z,5.30
2019-03-09T23:05:16.030Z,4.10
2019-03-09T23:07:47.685Z,5.27
2019-03-09T23:10:19.402Z,4.10
2019-03-09T23:12:51.174Z,4.10
2019-03-09T23:15:22.932Z,4.57
2019-03-09T23:17:54.616Z,4.27
2019-03-09T23:20:26.373Z,5.50
2019-03-09T23:22:58.156Z,5.57
2019-03-09T23:25:29.928Z,6.03
2019-03-09T23:28:01.629Z,5.80
2019-03-09T23:30:33.341Z,5.50
2019-03-09T23:33:08.138Z,5.40
2019-03-09T23:35:39.913Z,4.50
2019-03-09T23:38:11.628Z,5.50
2019-03-09T23:40:43.328Z,3.97
2019-03-09T23:43:15.037Z,4.20
2019-03-09T23:45:46.800Z,5.43
2019-03-09T23:48:18.578Z,5.40
2019-03-09T23:50:50.259Z,4.80
2019-03-09T23:53:21.958Z,3.80
2019-03-09T23:55:53.682Z,5.10
2019-03-09T23:58:25.361Z,4.83
